Victoria New Zealand — ZM2502 — position and weather

sailwx.info

Track history (hours):
 
Tides and Currents Weather Stations Pressure Air Temp Water Temp Dewpoint Dewpoint Depression Visibility Wind Speed Wind Dir Waves Ship Positions

Victoria New Zealand

Last reported at 2017-Dec-03 12:46 UTC. Time now 2017-Dec-15 15:51 UTC.
Position N 17°05' W 061°53'.
Warning: this ship's position is 12 days out of date.

Length 16 m.

Type: Sailing vessel. MMSI: 512003016.

Date/timePositionNaut miles runAvg speedWind from/ knotsBaromVisibWave heightAir tempDewpointWater temp
2017-Dec-03 12:46N 17°05' W 061°53'0 0.0
2017-Dec-02 12:58N 17°04' W 061°53'1 0.0
2017-Dec-01 14:07N 17°05' W 061°54'0 4.3
2017-Dec-01 14:00N 17°05' W 061°54'1 0.1
2017-Nov-30 19:40N 17°05' W 061°54'1 4.3
2017-Nov-30 19:28N 17°06' W 061°55'1 1.2
2017-Nov-30 18:58N 17°06' W 061°54'0 0.0
2017-Nov-30 18:27N 17°06' W 061°54'0 0.0
2017-Nov-30 18:00N 17°06' W 061°54'0 0.0
2017-Nov-30 17:27N 17°06' W 061°54'0 0.0
2017-Nov-30 16:57N 17°06' W 061°54'0 0.0
2017-Nov-30 16:30N 17°06' W 061°54'0 0.0
2017-Nov-30 16:00N 17°06' W 061°54'0 0.0
2017-Nov-30 15:27N 17°06' W 061°54'0 0.0
2017-Nov-30 14:57N 17°06' W 061°54'1 1.7
2017-Nov-30 14:30N 17°07' W 061°54'2 3.1
2017-Nov-30 14:00N 17°08' W 061°53'2 3.5
2017-Nov-30 13:30N 17°07' W 061°51'1 2.9
2017-Nov-30 13:00N 17°08' W 061°53'2 4.4
2017-Nov-30 12:30N 17°06' W 061°54'1 0.1
2017-Nov-29 16:03N 17°05' W 061°54'0 4.0
2017-Nov-29 15:56N 17°05' W 061°54'1 2.4
2017-Nov-29 15:26N 17°04' W 061°53'0 1.0
2017-Nov-29 14:57N 17°04' W 061°53'0 0.0
2017-Nov-29 14:24N 17°04' W 061°53'0 0.0
2017-Nov-29 13:57N 17°04' W 061°53'0 0.0
2017-Nov-29 13:30N 17°04' W 061°53'0 0.0
2017-Nov-29 13:00N 17°04' W 061°53'1 1.7
2017-Nov-29 12:29N 17°04' W 061°54'0 0.0
2017-Nov-29 11:50N 17°04' W 061°54'0 0.0
2017-Nov-29 11:26N 17°04' W 061°54'0 0.0
2017-Nov-29 10:59N 17°04' W 061°54'0 0.0
2017-Nov-29 10:29N 17°04' W 061°54'0 0.0
2017-Nov-29 09:59N 17°04' W 061°54'0 0.0
2017-Nov-29 09:26N 17°04' W 061°54'0 0.0
2017-Nov-29 08:59N 17°04' W 061°54'0 0.0
2017-Nov-29 08:26N 17°04' W 061°54'0 0.0
2017-Nov-29 07:59N 17°04' W 061°54'0 0.0
2017-Nov-29 07:29N 17°04' W 061°54'0 0.0
2017-Nov-29 06:59N 17°04' W 061°54'0 0.0
2017-Nov-29 06:29N 17°04' W 061°54'0 0.0
2017-Nov-29 05:59N 17°04' W 061°54'0 0.0
2017-Nov-29 05:29N 17°04' W 061°54'0 0.0
2017-Nov-29 04:59N 17°04' W 061°54'0 0.0
2017-Nov-29 04:29N 17°04' W 061°54'0 0.0
2017-Nov-29 03:59N 17°04' W 061°54'0 0.0
2017-Nov-29 03:29N 17°04' W 061°54'0 0.0
2017-Nov-29 02:59N 17°04' W 061°54'0 0.0
2017-Nov-29 02:29N 17°04' W 061°54'0 0.0
2017-Nov-29 01:59N 17°04' W 061°54'0 0.0
2017-Nov-29 01:29N 17°04' W 061°54'0 0.0
2017-Nov-29 00:59N 17°04' W 061°54'0 0.0
2017-Nov-29 00:29N 17°04' W 061°54'0 0.0
2017-Nov-28 23:56N 17°04' W 061°54'0 0.0
2017-Nov-28 23:26N 17°04' W 061°54'0 0.0
2017-Nov-28 22:53N 17°04' W 061°54'0 0.0
2017-Nov-28 22:29N 17°04' W 061°54'0 0.0
2017-Nov-28 21:56N 17°04' W 061°54'0 0.0
2017-Nov-28 21:29N 17°04' W 061°54'0 0.0
2017-Nov-28 20:59N 17°04' W 061°54'2 3.8
2017-Nov-28 20:22N 17°03' W 061°56'2 5.9
2017-Nov-28 20:00N 17°01' W 061°56'3 6.3
2017-Nov-28 19:30N 16°58' W 061°55'3 6.7
2017-Nov-28 19:00N 16°54' W 061°55'3 6.3
2017-Nov-28 18:30N 16°51' W 061°55'3 6.8
2017-Nov-28 18:00N 16°48' W 061°54'3 5.3
2017-Nov-28 17:30N 16°45' W 061°54'2 4.3
2017-Nov-28 17:00N 16°43' W 061°53'3 5.5
2017-Nov-28 16:30N 16°41' W 061°52'3 6.8
2017-Nov-28 16:00N 16°37' W 061°52'6 6.0
2017-Nov-28 14:59N 16°31' W 061°50'  
Track history (hours):
 
Tides and Currents Weather Stations Pressure Air Temp Water Temp Dewpoint Dewpoint Depression Visibility Wind Speed Wind Dir Waves Ship Positions

Victoria New Zealand

Last reported at 2017-Dec-03 12:46 UTC. Time now 2017-Dec-15 15:51 UTC.
Position N 17°05' W 061°53'.
Warning: this ship's position is 12 days out of date.

Length 16 m.

Type: Sailing vessel. MMSI: 512003016.

Date/timePositionNaut miles runAvg speedWind from/ knotsBaromVisibWave heightAir tempDewpointWater temp
2017-Dec-03 12:46N 17°05' W 061°53'0 0.0
2017-Dec-02 12:58N 17°04' W 061°53'1 0.0
2017-Dec-01 14:07N 17°05' W 061°54'0 4.3
2017-Dec-01 14:00N 17°05' W 061°54'1 0.1
2017-Nov-30 19:40N 17°05' W 061°54'1 4.3
2017-Nov-30 19:28N 17°06' W 061°55'1 1.2
2017-Nov-30 18:58N 17°06' W 061°54'0 0.0
2017-Nov-30 18:27N 17°06' W 061°54'0 0.0
2017-Nov-30 18:00N 17°06' W 061°54'0 0.0
2017-Nov-30 17:27N 17°06' W 061°54'0 0.0
2017-Nov-30 16:57N 17°06' W 061°54'0 0.0
2017-Nov-30 16:30N 17°06' W 061°54'0 0.0
2017-Nov-30 16:00N 17°06' W 061°54'0 0.0
2017-Nov-30 15:27N 17°06' W 061°54'0 0.0
2017-Nov-30 14:57N 17°06' W 061°54'1 1.7
2017-Nov-30 14:30N 17°07' W 061°54'2 3.1
2017-Nov-30 14:00N 17°08' W 061°53'2 3.5
2017-Nov-30 13:30N 17°07' W 061°51'1 2.9
2017-Nov-30 13:00N 17°08' W 061°53'2 4.4
2017-Nov-30 12:30N 17°06' W 061°54'1 0.1
2017-Nov-29 16:03N 17°05' W 061°54'0 4.0
2017-Nov-29 15:56N 17°05' W 061°54'1 2.4
2017-Nov-29 15:26N 17°04' W 061°53'0 1.0
2017-Nov-29 14:57N 17°04' W 061°53'0 0.0
2017-Nov-29 14:24N 17°04' W 061°53'0 0.0
2017-Nov-29 13:57N 17°04' W 061°53'0 0.0
2017-Nov-29 13:30N 17°04' W 061°53'0 0.0
2017-Nov-29 13:00N 17°04' W 061°53'1 1.7
2017-Nov-29 12:29N 17°04' W 061°54'0 0.0
2017-Nov-29 11:50N 17°04' W 061°54'0 0.0
2017-Nov-29 11:26N 17°04' W 061°54'0 0.0
2017-Nov-29 10:59N 17°04' W 061°54'0 0.0
2017-Nov-29 10:29N 17°04' W 061°54'0 0.0
2017-Nov-29 09:59N 17°04' W 061°54'0 0.0
2017-Nov-29 09:26N 17°04' W 061°54'0 0.0
2017-Nov-29 08:59N 17°04' W 061°54'0 0.0
2017-Nov-29 08:26N 17°04' W 061°54'0 0.0
2017-Nov-29 07:59N 17°04' W 061°54'0 0.0
2017-Nov-29 07:29N 17°04' W 061°54'0 0.0
2017-Nov-29 06:59N 17°04' W 061°54'0 0.0
2017-Nov-29 06:29N 17°04' W 061°54'0 0.0
2017-Nov-29 05:59N 17°04' W 061°54'0 0.0
2017-Nov-29 05:29N 17°04' W 061°54'0 0.0
2017-Nov-29 04:59N 17°04' W 061°54'0 0.0
2017-Nov-29 04:29N 17°04' W 061°54'0 0.0
2017-Nov-29 03:59N 17°04' W 061°54'0 0.0
2017-Nov-29 03:29N 17°04' W 061°54'0 0.0
2017-Nov-29 02:59N 17°04' W 061°54'0 0.0
2017-Nov-29 02:29N 17°04' W 061°54'0 0.0
2017-Nov-29 01:59N 17°04' W 061°54'0 0.0
2017-Nov-29 01:29N 17°04' W 061°54'0 0.0
2017-Nov-29 00:59N 17°04' W 061°54'0 0.0
2017-Nov-29 00:29N 17°04' W 061°54'0 0.0
2017-Nov-28 23:56N 17°04' W 061°54'0 0.0
2017-Nov-28 23:26N 17°04' W 061°54'0 0.0
2017-Nov-28 22:53N 17°04' W 061°54'0 0.0
2017-Nov-28 22:29N 17°04' W 061°54'0 0.0
2017-Nov-28 21:56N 17°04' W 061°54'0 0.0
2017-Nov-28 21:29N 17°04' W 061°54'0 0.0
2017-Nov-28 20:59N 17°04' W 061°54'2 3.8
2017-Nov-28 20:22N 17°03' W 061°56'2 5.9
2017-Nov-28 20:00N 17°01' W 061°56'3 6.3
2017-Nov-28 19:30N 16°58' W 061°55'3 6.7
2017-Nov-28 19:00N 16°54' W 061°55'3 6.3
2017-Nov-28 18:30N 16°51' W 061°55'3 6.8
2017-Nov-28 18:00N 16°48' W 061°54'3 5.3
2017-Nov-28 17:30N 16°45' W 061°54'2 4.3
2017-Nov-28 17:00N 16°43' W 061°53'3 5.5
2017-Nov-28 16:30N 16°41' W 061°52'3 6.8
2017-Nov-28 16:00N 16°37' W 061°52'6 6.0
2017-Nov-28 14:59N 16°31' W 061°50'  

Dump ship's entire track history